Time;durP1;ratioP1;P1;durP2;ratioP2;P2;SDS_P1;SDS_P2;PMS_P1;PMS_P2;Temp;Humidity;BMP_temperature;BMP_pressure;BME280_temperature;BME280_humidity;BME280_pressure;Samples;Min_cycle;Max_cycle;Signal;HPM_P1;HPM_P2
2022/04/04 00:01:52;;;;;;;4.83;2.70;;;4.30;99.90;;;;;;4973430;28;20034;-85
2022/04/04 00:04:17;;;;;;;6.33;3.10;;;3.80;99.90;;;;;;5005481;28;20046;-86
2022/04/04 00:06:44;;;;;;;5.95;3.08;;;3.90;99.90;;;;;;4990074;28;20070;-86
2022/04/04 00:09:10;;;;;;;5.82;3.05;;;3.80;99.90;;;;;;4990961;28;20039;-87
2022/04/04 00:11:36;;;;;;;5.90;3.05;;;3.80;99.90;;;;;;5007424;28;20042;-87
2022/04/04 00:14:03;;;;;;;6.10;2.80;;;5.10;99.90;;;;;;4957149;28;20465;-87
2022/04/04 00:16:29;;;;;;;4.33;2.83;;;3.80;99.90;;;;;;4959112;28;20045;-87
2022/04/04 00:18:54;;;;;;;6.50;3.37;;;3.90;99.90;;;;;;4973104;28;20038;-87
2022/04/04 00:21:20;;;;;;;8.45;3.40;;;5.20;99.90;;;;;;4983541;28;20031;-87
2022/04/04 00:23:46;;;;;;;7.43;3.80;;;4.00;99.90;;;;;;5006625;28;20129;-87
2022/04/04 00:26:12;;;;;;;7.53;3.83;;;4.00;99.90;;;;;;5006119;28;20650;-86
2022/04/04 00:28:38;;;;;;;8.07;4.05;;;4.20;99.90;;;;;;5003996;28;20132;-86
2022/04/04 00:31:03;;;;;;;9.65;4.53;;;5.40;99.90;;;;;;5003001;28;20061;-86
2022/04/04 00:33:29;;;;;;;8.65;4.80;;;4.20;99.90;;;;;;4972185;28;20050;-86
2022/04/04 00:35:55;;;;;;;7.65;4.68;;;4.70;99.90;;;;;;4972778;28;20128;-86
2022/04/04 00:38:22;;;;;;;8.30;4.95;;;4.40;99.90;;;;;;4974850;28;20105;-86
2022/04/04 00:40:48;;;;;;;9.67;5.30;;;4.40;99.90;;;;;;5007638;28;20547;-86
2022/04/04 00:43:14;;;;;;;8.50;5.38;;;5.00;99.90;;;;;;4991391;28;20040;-86
2022/04/04 00:45:47;;;;;;;12.90;5.57;;;5.10;99.90;;;;;;5006411;28;20034;-86
2022/04/04 00:48:12;;;;;;;10.52;6.63;;;4.50;99.90;;;;;;4989741;28;20066;-87
2022/04/04 00:50:38;;;;;;;14.32;7.10;;;5.60;99.90;;;;;;4990838;28;20078;-86
2022/04/04 00:53:07;;;;;;;16.90;8.43;;;4.60;99.90;;;;;;4985749;28;20121;-86
2022/04/04 00:55:33;;;;;;;17.27;7.97;;;;;;;;;;4975238;28;20038;-87
2022/04/04 00:57:59;;;;;;;15.23;7.55;;;4.70;99.90;;;;;;4974728;28;20180;-86
2022/04/04 01:00:25;;;;;;;10.70;7.43;;;5.70;99.90;;;;;;4989204;28;20117;-85
2022/04/04 01:02:51;;;;;;;14.82;8.15;;;5.00;99.90;;;;;;4974521;28;20052;-85
2022/04/04 01:05:17;;;;;;;11.82;8.00;;;4.80;99.90;;;;;;4988856;28;20038;-85
2022/04/04 01:07:42;;;;;;;13.40;7.97;;;5.10;99.90;;;;;;4958083;28;20035;-85
2022/04/04 01:10:09;;;;;;;15.73;8.80;;;4.90;99.90;;;;;;4993359;28;20079;-85
2022/04/04 01:12:36;;;;;;;13.75;8.70;;;5.10;99.90;;;;;;4985492;28;20105;-85
2022/04/04 01:15:02;;;;;;;12.75;8.13;;;5.00;99.90;;;;;;4972902;28;20396;-86
2022/04/04 01:17:30;;;;;;;13.20;7.95;;;;;;;;;;4975848;28;20042;-86
2022/04/04 01:19:56;;;;;;;14.77;9.15;;;5.00;99.90;;;;;;4992963;28;20121;-86
2022/04/04 01:22:22;;;;;;;15.18;8.30;;;6.20;99.90;;;;;;4977662;28;20465;-86
2022/04/04 01:24:47;;;;;;;15.15;8.65;;;5.10;99.90;;;;;;5009991;28;20042;-87
2022/04/04 01:27:13;;;;;;;15.18;9.00;;;5.50;99.90;;;;;;4961263;28;20030;-87
2022/04/04 01:29:39;;;;;;;14.93;9.65;;;5.40;99.90;;;;;;4974160;28;20049;-87
2022/04/04 01:32:07;;;;;;;13.63;9.73;;;5.10;99.90;;;;;;4975181;28;20039;-86
2022/04/04 01:34:33;;;;;;;15.82;10.05;;;5.10;99.90;;;;;;4978586;28;20125;-86
2022/04/04 01:36:59;;;;;;;16.02;10.23;;;5.20;99.90;;;;;;5008769;28;20517;-86
2022/04/04 01:39:25;;;;;;;15.70;9.20;;;5.40;99.90;;;;;;4960206;28;20046;-86
2022/04/04 01:41:51;;;;;;;13.23;9.25;;;5.30;99.90;;;;;;4978512;28;20050;-85
2022/04/04 01:44:17;;;;;;;13.40;9.10;;;5.30;99.90;;;;;;4992124;28;20035;-86
2022/04/04 01:46:43;;;;;;;16.63;10.30;;;5.30;99.90;;;;;;4975679;28;20440;-86
2022/04/04 01:49:09;;;;;;;16.05;10.50;;;5.30;99.90;;;;;;4973574;28;20117;-86
2022/04/04 01:51:37;;;;;;;15.60;10.63;;;5.40;99.90;;;;;;5008563;28;20050;-86
2022/04/04 01:54:04;;;;;;;16.65;10.13;;;5.40;99.90;;;;;;4994140;28;20046;-86
2022/04/04 01:56:29;;;;;;;17.45;10.23;;;5.40;99.90;;;;;;5007739;28;20038;-86
2022/04/04 01:58:55;;;;;;;15.90;9.88;;;5.40;99.90;;;;;;4977046;28;20116;-87
2022/04/04 02:01:23;;;;;;;18.60;10.75;;;5.50;99.90;;;;;;4976495;28;20429;-86
2022/04/04 02:03:56;;;;;;;21.30;12.10;;;5.40;99.90;;;;;;4974867;28;20053;-86
2022/04/04 02:06:22;;;;;;;15.98;10.35;;;5.50;99.90;;;;;;4975356;28;20066;-86
2022/04/04 02:08:49;;;;;;;18.40;12.05;;;6.00;99.90;;;;;;4989851;28;20045;-86
2022/04/04 02:11:16;;;;;;;19.42;12.00;;;6.40;99.90;;;;;;4976607;28;20042;-87
2022/04/04 02:13:43;;;;;;;18.30;12.63;;;5.70;99.90;;;;;;4972765;28;20484;-86
2022/04/04 02:16:09;;;;;;;15.73;10.23;;;5.30;99.90;;;;;;5010584;28;20046;-86
2022/04/04 02:18:35;;;;;;;19.65;11.00;;;5.60;99.90;;;;;;4960726;28;20596;-86
2022/04/04 02:21:03;;;;;;;20.30;10.98;;;5.40;99.90;;;;;;4960875;28;20046;-86
2022/04/04 02:23:29;;;;;;;19.98;11.65;;;5.40;99.90;;;;;;5009128;28;20112;-86
2022/04/04 02:25:56;;;;;;;16.30;9.48;;;5.40;99.90;;;;;;5009945;28;20101;-86
2022/04/04 02:28:22;;;;;;;21.17;12.50;;;5.80;99.90;;;;;;5009069;28;20034;-86
2022/04/04 02:30:49;;;;;;;20.58;10.85;;;5.40;99.90;;;;;;4976912;28;20050;-86
2022/04/04 02:33:16;;;;;;;19.50;12.13;;;6.00;99.90;;;;;;4991825;28;20433;-86
2022/04/04 02:35:42;;;;;;;16.33;11.13;;;5.40;99.90;;;;;;4975650;28;20046;-86
2022/04/04 02:38:09;;;;;;;15.63;11.43;;;;;;;;;;4992106;28;20112;-87
2022/04/04 02:40:36;;;;;;;20.63;11.32;;;5.40;99.90;;;;;;4975429;28;20038;-86
2022/04/04 02:43:02;;;;;;;20.33;12.60;;;5.40;99.90;;;;;;4974995;28;20081;-87
2022/04/04 02:45:29;;;;;;;16.80;11.70;;;5.80;99.90;;;;;;4958294;28;20401;-87
2022/04/04 02:47:55;;;;;;;19.15;12.52;;;5.40;99.90;;;;;;4986176;23;20078;-86
2022/04/04 02:50:21;;;;;;;21.13;12.70;;;5.40;99.90;;;;;;4991012;28;20465;-86
2022/04/04 02:52:47;;;;;;;17.23;12.95;;;5.40;99.90;;;;;;5004512;28;20038;-86
2022/04/04 02:57:57;;;;;;;16.35;10.88;;;6.20;99.90;;;;;;5012996;28;20116;-86
2022/04/04 03:00:26;;;;;;;17.38;11.45;;;5.80;99.90;;;;;;4998084;28;20492;-85
2022/04/04 03:02:56;;;;;;;21.20;12.68;;;6.50;99.90;;;;;;4986478;28;20044;-85
2022/04/04 03:05:22;;;;;;;18.92;12.50;;;5.80;99.90;;;;;;5007075;28;20034;-85
2022/04/04 03:07:50;;;;;;;16.92;12.73;;;6.00;99.90;;;;;;4994519;28;20074;-85
2022/04/04 03:10:16;;;;;;;19.90;12.63;;;5.60;99.90;;;;;;4984748;28;20038;-86
2022/04/04 03:12:43;;;;;;;18.17;12.32;;;5.60;99.90;;;;;;4988024;28;20044;-86
2022/04/04 03:15:15;;;;;;;21.95;12.15;;;5.70;99.90;;;;;;4994615;28;20042;-86
2022/04/04 03:17:47;;;;;;;19.85;12.90;;;5.70;99.90;;;;;;5004093;28;20038;-87
2022/04/04 03:20:15;;;;;;;17.85;11.52;;;5.70;99.90;;;;;;5002463;28;20096;-86
2022/04/04 03:22:44;;;;;;;21.73;12.40;;;5.70;99.90;;;;;;5000267;28;20487;-86
2022/04/04 03:25:11;;;;;;;17.38;11.52;;;5.70;99.90;;;;;;4998356;28;20073;-86
2022/04/04 03:27:39;;;;;;;20.98;13.63;;;6.60;99.90;;;;;;4996607;28;20034;-86
2022/04/04 03:30:07;;;;;;;17.20;11.27;;;5.90;99.90;;;;;;5003723;28;20042;-86
2022/04/04 03:32:33;;;;;;;17.58;10.90;;;5.70;99.90;;;;;;5009374;28;20046;-87
2022/04/04 03:35:00;;;;;;;18.05;11.75;;;5.70;99.90;;;;;;4976785;28;20042;-87
2022/04/04 03:37:27;;;;;;;19.85;12.43;;;5.60;99.90;;;;;;5000382;28;20132;-87
2022/04/04 03:39:53;;;;;;;19.83;11.63;;;5.60;99.90;;;;;;5003570;28;20049;-87
2022/04/04 03:42:20;;;;;;;16.65;10.75;;;6.20;99.90;;;;;;4997632;28;20030;-87
2022/04/04 03:44:46;;;;;;;22.50;12.15;;;6.00;99.90;;;;;;4996558;28;20045;-86
2022/04/04 03:47:12;;;;;;;20.42;11.60;;;5.50;99.90;;;;;;4994897;28;20042;-87
2022/04/04 03:49:38;;;;;;;23.33;13.95;;;5.70;99.90;;;;;;4968778;28;20554;-86
2022/04/04 03:52:06;;;;;;;26.45;13.70;;;5.80;99.90;;;;;;4985133;28;20489;-87
2022/04/04 03:54:32;;;;;;;23.58;13.60;;;5.40;99.90;;;;;;4969492;28;20045;-87
2022/04/04 03:56:58;;;;;;;25.13;13.85;;;6.30;99.90;;;;;;4967467;28;20042;-86
2022/04/04 03:59:24;;;;;;;25.17;13.43;;;5.40;99.90;;;;;;4966087;28;20099;-87
2022/04/04 04:01:50;;;;;;;20.02;12.35;;;5.40;99.90;;;;;;4981878;28;20038;-86
2022/04/04 04:04:16;;;;;;;25.40;14.00;;;5.40;99.90;;;;;;4971199;28;20395;-86
2022/04/04 04:06:41;;;;;;;25.15;14.60;;;5.40;99.90;;;;;;4967022;28;20038;-86
2022/04/04 04:09:07;;;;;;;28.48;15.48;;;5.30;99.90;;;;;;4986273;28;20038;-85
2022/04/04 04:11:34;;;;;;;21.33;14.32;;;5.40;99.90;;;;;;4967092;28;20035;-86
2022/04/04 04:14:00;;;;;;;20.10;12.27;;;6.30;99.90;;;;;;4986885;28;20132;-86
2022/04/04 04:16:26;;;;;;;19.58;11.95;;;5.30;99.90;;;;;;4957632;28;20034;-86
2022/04/04 04:18:52;;;;;;;20.08;11.20;;;5.30;99.90;;;;;;4961859;28;20125;-86
2022/04/04 04:21:18;;;;;;;17.27;10.02;;;5.30;99.90;;;;;;4964786;28;20121;-87
2022/04/04 04:23:44;;;;;;;15.43;8.80;;;5.30;99.90;;;;;;4965380;28;20035;-87
2022/04/04 04:26:13;;;;;;;18.63;9.75;;;6.10;99.90;;;;;;4965205;28;20069;-87
2022/04/04 04:28:40;;;;;;;16.80;7.47;;;5.30;99.90;;;;;;4983930;28;20128;-87
2022/04/04 04:31:06;;;;;;;15.77;9.63;;;5.30;99.90;;;;;;4977722;28;20073;-88
2022/04/04 04:33:32;;;;;;;13.13;7.82;;;5.30;99.90;;;;;;4957762;28;20062;-87
2022/04/04 04:36:00;;;;;;;16.08;8.60;;;5.50;99.90;;;;;;4964851;28;20049;-85
2022/04/04 04:38:26;;;;;;;14.82;8.30;;;5.60;99.90;;;;;;4978399;28;20053;-85
2022/04/04 04:40:52;;;;;;;16.90;9.57;;;5.30;99.90;;;;;;4974946;28;20077;-85
2022/04/04 04:43:18;;;;;;;13.63;8.27;;;5.80;99.90;;;;;;4952350;28;20120;-86
2022/04/04 04:45:44;;;;;;;14.00;8.32;;;5.40;99.90;;;;;;4966535;28;20573;-86
2022/04/04 04:48:10;;;;;;;17.08;8.80;;;5.30;99.90;;;;;;4982190;28;20052;-86
2022/04/04 04:50:36;;;;;;;11.60;7.85;;;5.60;99.90;;;;;;4986635;28;20130;-87
2022/04/04 04:53:02;;;;;;;15.18;8.00;;;5.30;99.90;;;;;;4978205;28;20077;-88
2022/04/04 04:55:28;;;;;;;15.50;8.02;;;5.30;99.90;;;;;;4995045;28;20038;-87
2022/04/04 04:57:54;;;;;;;15.02;7.53;;;5.30;99.90;;;;;;4984015;28;20049;-88
2022/04/04 05:00:23;;;;;;;17.50;10.07;;;5.50;99.90;;;;;;4995420;28;20073;-87
2022/04/04 05:03:24;;;;;;;15.93;9.10;;;5.30;99.90;;;;;;4993294;28;20138;-87
2022/04/04 05:05:37;;;;;;;18.35;9.45;;;5.30;99.90;;;;;;4991581;28;20042;-87
2022/04/04 05:08:03;;;;;;;14.45;9.60;;;5.30;99.90;;;;;;4991117;28;20386;-87
2022/04/04 05:10:29;;;;;;;19.33;10.73;;;5.20;99.90;;;;;;4972095;28;20086;-87
2022/04/04 05:12:56;;;;;;;17.90;10.25;;;5.20;99.90;;;;;;4971572;28;20038;-87
2022/04/04 05:15:23;;;;;;;19.27;10.13;;;5.20;99.90;;;;;;4991391;28;20400;-87
2022/04/04 05:17:52;;;;;;;19.00;9.85;;;5.20;99.90;;;;;;5006538;28;20092;-86
2022/04/04 05:20:19;;;;;;;22.90;10.35;;;5.10;99.90;;;;;;4995721;28;20121;-87
2022/04/04 05:22:45;;;;;;;16.85;10.27;;;5.10;99.90;;;;;;4990930;28;20062;-88
2022/04/04 05:25:12;;;;;;;19.23;9.07;;;5.10;99.90;;;;;;4974928;28;20040;-86
2022/04/04 05:27:39;;;;;;;15.75;8.80;;;5.10;99.90;;;;;;5006907;28;20050;-86
2022/04/04 05:30:05;;;;;;;14.75;7.15;;;5.10;99.90;;;;;;4988866;28;20072;-85
2022/04/04 05:32:31;;;;;;;13.20;6.05;;;5.00;99.90;;;;;;4991163;28;20046;-80
2022/04/04 05:34:57;;;;;;;8.90;4.47;;;4.90;99.90;;;;;;4989162;28;20512;-81
2022/04/04 05:37:22;;;;;;;9.90;4.28;;;4.90;99.90;;;;;;4971657;28;20065;-81
2022/04/04 05:39:48;;;;;;;7.45;4.00;;;4.90;99.90;;;;;;4987053;28;20153;-80
2022/04/04 05:42:16;;;;;;;9.25;4.03;;;4.80;99.90;;;;;;4990472;28;20038;-89
2022/04/04 05:44:41;;;;;;;8.02;4.90;;;5.30;99.90;;;;;;5009035;28;20121;-88
2022/04/04 05:47:09;;;;;;;9.60;4.50;;;4.70;99.90;;;;;;4974186;28;20169;-86
2022/04/04 05:49:35;;;;;;;9.88;3.65;;;4.70;99.90;;;;;;4974000;28;20077;-86
2022/04/04 05:52:01;;;;;;;7.60;4.22;;;4.40;99.90;;;;;;4944683;28;20125;-86
2022/04/04 05:54:27;;;;;;;11.82;4.10;;;4.70;99.90;;;;;;4941059;28;20042;-85
2022/04/04 05:56:53;;;;;;;7.22;3.20;;;4.60;99.90;;;;;;4956629;28;20038;-87
2022/04/04 05:59:18;;;;;;;6.53;2.58;;;4.60;99.90;;;;;;4959950;28;20049;-81
2022/04/04 06:01:44;;;;;;;10.27;3.22;;;4.50;99.90;;;;;;4973755;28;20058;-80
2022/04/04 06:04:10;;;;;;;6.75;2.75;;;4.70;99.90;;;;;;4978994;28;20038;-81
2022/04/04 06:06:35;;;;;;;7.00;2.80;;;4.50;99.90;;;;;;4977415;28;20038;-80
2022/04/04 06:09:01;;;;;;;7.70;2.80;;;4.50;99.90;;;;;;4961548;28;20088;-80
2022/04/04 06:11:27;;;;;;;6.88;3.10;;;4.50;99.90;;;;;;4976763;28;20041;-80
2022/04/04 06:13:53;;;;;;;8.85;3.63;;;4.50;99.90;;;;;;4977947;28;20042;-81
2022/04/04 06:16:19;;;;;;;10.80;3.58;;;4.70;99.90;;;;;;4979880;28;20046;-84
2022/04/04 06:18:45;;;;;;;7.60;3.00;;;4.50;99.90;;;;;;4978388;28;20045;-85
2022/04/04 06:21:10;;;;;;;6.53;3.00;;;5.40;99.90;;;;;;4978870;28;20045;-85
2022/04/04 06:23:36;;;;;;;7.25;3.50;;;4.50;99.90;;;;;;4978617;28;20060;-83
2022/04/04 06:26:06;;;;;;;5.78;3.40;;;4.50;99.90;;;;;;4978441;28;20038;-83
2022/04/04 06:28:34;;;;;;;9.38;3.97;;;4.60;99.90;;;;;;4976449;28;20030;-83
2022/04/04 06:31:01;;;;;;;10.65;3.92;;;4.60;99.90;;;;;;4978125;28;20038;-83
2022/04/04 06:33:29;;;;;;;9.35;4.07;;;5.60;99.90;;;;;;4981995;28;20057;-79
2022/04/04 06:35:55;;;;;;;8.63;4.50;;;4.60;99.90;;;;;;4960725;28;20045;-79
2022/04/04 06:38:21;;;;;;;7.40;4.30;;;4.70;99.90;;;;;;4976418;28;20050;-79
2022/04/04 06:40:49;;;;;;;4.97;3.78;;;4.70;99.90;;;;;;4978918;28;20449;-79
2022/04/04 06:43:17;;;;;;;16.05;5.22;;;5.10;99.90;;;;;;4972979;28;20057;-79
2022/04/04 06:45:44;;;;;;;8.20;4.53;;;4.70;99.90;;;;;;4959386;28;20117;-79
2022/04/04 06:48:11;;;;;;;12.60;5.63;;;4.70;99.90;;;;;;4952085;28;20093;-82
2022/04/04 06:50:37;;;;;;;11.63;6.20;;;4.70;99.90;;;;;;4941094;28;20184;-82
2022/04/04 06:53:03;;;;;;;14.57;6.10;;;4.70;99.90;;;;;;4956864;28;20061;-82
2022/04/04 06:55:31;;;;;;;11.55;5.10;;;6.70;99.90;;;;;;4956744;28;20043;-82
2022/04/04 06:57:57;;;;;;;10.25;5.32;;;4.80;99.90;;;;;;4959242;28;20034;-82
2022/04/04 07:00:23;;;;;;;16.10;6.80;;;4.90;99.90;;;;;;4956519;28;20700;-82
2022/04/04 07:02:50;;;;;;;12.63;6.43;;;4.90;99.90;;;;;;4975866;28;20493;-81
2022/04/04 07:05:16;;;;;;;14.85;7.70;;;4.90;99.90;;;;;;4957473;28;20057;-84
2022/04/04 07:07:42;;;;;;;15.60;8.05;;;4.90;99.90;;;;;;4957151;28;20065;-84
2022/04/04 07:10:10;;;;;;;16.20;7.90;;;5.00;99.90;;;;;;4954105;28;20499;-84
2022/04/04 07:12:41;;;;;;;14.75;7.38;;;5.00;99.90;;;;;;4939554;28;20042;-84
2022/04/04 07:15:08;;;;;;;13.55;7.22;;;5.00;99.90;;;;;;4955437;28;20042;-83
2022/04/04 07:17:34;;;;;;;15.02;8.75;;;5.10;99.90;;;;;;4939982;28;20061;-83
2022/04/04 07:20:00;;;;;;;17.10;8.15;;;5.20;99.90;;;;;;4956388;28;20039;-83
2022/04/04 07:22:25;;;;;;;16.60;8.30;;;5.20;99.90;;;;;;4956303;28;20035;-79
2022/04/04 07:24:51;;;;;;;19.90;10.02;;;5.10;99.90;;;;;;4940543;28;20662;-79
2022/04/04 07:27:17;;;;;;;18.55;9.88;;;5.20;99.90;;;;;;4940765;28;20552;-79
2022/04/04 07:29:43;;;;;;;15.75;8.68;;;5.30;99.90;;;;;;4956779;28;20405;-79
2022/04/04 07:32:09;;;;;;;17.42;8.52;;;5.40;99.90;;;;;;4941382;28;20045;-79
2022/04/04 07:34:36;;;;;;;19.85;9.63;;;5.30;99.90;;;;;;4957340;28;20039;-79
2022/04/04 07:37:02;;;;;;;12.85;7.70;;;5.40;99.90;;;;;;4957420;28;20042;-79
2022/04/04 07:39:28;;;;;;;14.27;7.85;;;5.40;99.90;;;;;;4941657;28;20057;-79
2022/04/04 07:41:54;;;;;;;14.88;9.05;;;5.50;99.90;;;;;;4940930;28;20481;-79
2022/04/04 07:44:19;;;;;;;14.68;7.82;;;5.50;99.90;;;;;;4955868;28;20137;-78
2022/04/04 07:46:45;;;;;;;15.45;8.18;;;5.50;99.90;;;;;;4955555;28;20444;-79
2022/04/04 07:49:11;;;;;;;15.88;7.22;;;5.50;99.90;;;;;;4955635;28;20458;-79
2022/04/04 07:51:36;;;;;;;14.82;6.90;;;5.90;99.90;;;;;;4967686;28;20437;-79
2022/04/04 07:54:02;;;;;;;16.27;9.35;;;5.50;99.90;;;;;;4960734;28;20515;-79
2022/04/04 07:56:28;;;;;;;13.52;7.65;;;5.50;99.90;;;;;;4944380;28;20081;-81
2022/04/04 07:58:54;;;;;;;14.27;7.63;;;5.50;99.90;;;;;;4972694;28;20142;-81
2022/04/04 08:01:19;;;;;;;11.77;6.68;;;5.50;99.90;;;;;;4958551;28;20121;-81
2022/04/04 08:03:46;;;;;;;14.63;7.85;;;5.80;99.90;;;;;;4975017;28;20042;-81
2022/04/04 08:06:12;;;;;;;16.13;7.22;;;5.50;99.90;;;;;;4975690;28;20047;-81
2022/04/04 08:08:37;;;;;;;15.88;7.57;;;5.50;99.90;;;;;;4974668;28;20481;-81
2022/04/04 08:11:03;;;;;;;15.13;8.18;;;5.50;99.90;;;;;;4959109;28;20105;-81
2022/04/04 08:13:30;;;;;;;16.63;8.88;;;5.50;99.90;;;;;;4960488;28;20484;-81
2022/04/04 08:15:56;;;;;;;13.85;8.48;;;5.50;99.90;;;;;;4988791;28;20042;-81
2022/04/04 08:18:23;;;;;;;12.35;7.25;;;5.50;99.90;;;;;;4976808;28;20045;-81
2022/04/04 08:20:48;;;;;;;10.10;4.70;;;6.00;99.90;;;;;;4975905;28;20085;-81
2022/04/04 08:23:14;;;;;;;12.77;6.70;;;5.60;99.90;;;;;;4975141;28;20062;-81
2022/04/04 08:25:40;;;;;;;10.63;6.22;;;5.60;99.90;;;;;;4974758;28;20065;-80
2022/04/04 08:28:06;;;;;;;12.23;6.72;;;5.60;99.90;;;;;;4958248;28;20034;-78
2022/04/04 08:30:32;;;;;;;15.63;7.25;;;5.60;99.90;;;;;;4943471;28;20133;-78
2022/04/04 08:32:58;;;;;;;9.23;5.50;;;6.20;99.90;;;;;;4976011;28;20133;-78
2022/04/04 08:35:24;;;;;;;8.80;5.13;;;5.70;99.90;;;;;;4976087;28;20053;-78
2022/04/04 08:37:50;;;;;;;11.90;5.82;;;6.40;99.90;;;;;;4975423;28;20069;-78
2022/04/04 08:40:19;;;;;;;9.15;5.63;;;5.80;99.90;;;;;;4959624;28;20038;-78
2022/04/04 08:42:46;;;;;;;11.38;5.90;;;6.00;99.90;;;;;;4990105;28;20027;-77
2022/04/04 08:45:12;;;;;;;13.48;5.85;;;5.80;99.90;;;;;;4973649;28;20038;-80
2022/04/04 08:47:39;;;;;;;14.40;6.18;;;5.80;99.90;;;;;;4943838;28;20543;-80
2022/04/04 08:50:06;;;;;;;11.70;6.00;;;5.90;99.90;;;;;;4972740;28;20085;-80
2022/04/04 08:52:32;;;;;;;6.30;4.05;;;5.90;99.90;;;;;;4976034;28;20042;-81
2022/04/04 08:54:58;;;;;;;9.90;4.82;;;6.20;99.90;;;;;;4988156;28;20054;-81
2022/04/04 08:57:24;;;;;;;8.80;4.45;;;5.90;99.90;;;;;;4975283;28;20492;-81
2022/04/04 08:59:50;;;;;;;13.95;5.20;;;5.90;99.90;;;;;;4975481;28;20043;-81
2022/04/04 09:02:16;;;;;;;9.75;5.30;;;5.90;99.90;;;;;;4975334;28;20034;-78
2022/04/04 09:04:42;;;;;;;7.50;3.63;;;5.90;99.90;;;;;;4975663;28;20387;-78
2022/04/04 09:07:09;;;;;;;8.63;4.65;;;6.00;99.90;;;;;;4975766;28;20045;-78
2022/04/04 09:09:43;;;;;;;9.45;4.63;;;6.00;99.90;;;;;;4975103;28;20125;-78
2022/04/04 09:12:18;;;;;;;12.15;5.00;;;6.00;99.90;;;;;;4968999;28;20121;-78
2022/04/04 09:14:51;;;;;;;9.48;4.20;;;6.10;99.90;;;;;;4974407;28;20081;-78
2022/04/04 09:17:22;;;;;;;10.45;4.30;;;6.10;99.90;;;;;;4975438;28;20038;-78
2022/04/04 09:19:48;;;;;;;10.20;4.00;;;6.10;99.90;;;;;;4978758;28;20061;-77
2022/04/04 09:22:18;;;;;;;8.38;3.97;;;6.20;99.90;;;;;;4979402;28;20700;-78
2022/04/04 09:24:49;;;;;;;9.05;4.20;;;6.20;99.90;;;;;;4956140;28;20046;-77
2022/04/04 09:27:40;;;;;;;8.05;4.10;;;6.20;99.90;;;;;;4976306;28;20034;-78
2022/04/04 09:30:19;;;;;;;7.53;3.17;;;6.20;99.90;;;;;;4975463;28;20133;-78
2022/04/04 09:32:46;;;;;;;9.20;3.60;;;6.30;99.90;;;;;;4992487;28;20099;-78
2022/04/04 09:35:14;;;;;;;8.15;3.78;;;6.30;99.90;;;;;;4976367;28;20038;-81
2022/04/04 09:37:42;;;;;;;8.98;3.70;;;6.30;99.90;;;;;;4966011;28;20148;-81
2022/04/04 09:40:13;;;;;;;7.18;3.50;;;6.30;99.90;;;;;;4974968;28;20051;-81
2022/04/04 09:42:39;;;;;;;10.30;4.10;;;6.40;99.90;;;;;;4974708;28;20053;-81
2022/04/04 09:45:13;;;;;;;9.45;4.40;;;6.40;99.90;;;;;;4961828;28;20507;-82
2022/04/04 09:47:55;;;;;;;7.20;4.07;;;6.60;99.90;;;;;;4977528;28;20051;-81
2022/04/04 09:50:46;;;;;;;11.52;4.07;;;6.40;99.90;;;;;;4975952;28;20046;-81
2022/04/04 09:53:12;;;;;;;7.60;4.03;;;6.50;99.90;;;;;;4978464;28;20089;-78
2022/04/04 09:55:46;;;;;;;8.15;3.38;;;6.50;99.90;;;;;;4978376;28;20069;-78
2022/04/04 09:58:16;;;;;;;10.13;4.00;;;6.50;99.90;;;;;;4963836;28;20042;-78
2022/04/04 10:00:44;;;;;;;10.65;3.90;;;6.50;99.90;;;;;;4975357;28;20078;-78
2022/04/04 10:03:13;;;;;;;7.43;3.47;;;6.70;99.90;;;;;;4976448;28;20046;-78
2022/04/04 10:05:42;;;;;;;10.38;4.00;;;6.50;99.90;;;;;;4978025;28;20563;-78
2022/04/04 10:08:15;;;;;;;9.73;4.20;;;6.50;99.90;;;;;;4977741;28;20346;-78
2022/04/04 10:10:42;;;;;;;8.82;4.20;;;6.50;99.90;;;;;;4956328;28;20052;-78
2022/04/04 10:13:10;;;;;;;11.82;3.28;;;6.50;99.90;;;;;;4977788;28;20042;-78
2022/04/04 10:15:39;;;;;;;8.60;3.17;;;6.50;99.90;;;;;;4978084;28;20045;-78
2022/04/04 10:18:08;;;;;;;8.25;3.22;;;7.30;99.90;;;;;;4945704;28;20046;-78
2022/04/04 10:20:35;;;;;;;8.43;3.00;;;6.50;99.90;;;;;;4963146;28;20045;-78
2022/04/04 10:23:03;;;;;;;5.75;2.85;;;6.70;99.90;;;;;;4962612;28;20085;-78
2022/04/04 10:25:31;;;;;;;8.00;3.30;;;6.60;99.90;;;;;;4977141;28;20161;-78
2022/04/04 10:27:59;;;;;;;9.60;2.90;;;6.60;99.90;;;;;;4979527;28;20046;-78
2022/04/04 10:30:42;;;;;;;11.82;3.28;;;6.70;99.90;;;;;;4979164;28;20038;-78
2022/04/04 10:33:23;;;;;;;9.13;3.45;;;6.70;99.90;;;;;;4979454;28;20047;-78
2022/04/04 10:36:04;;;;;;;8.20;2.53;;;6.70;99.90;;;;;;4974374;28;20042;-78
2022/04/04 10:38:32;;;;;;;7.53;2.67;;;6.80;99.90;;;;;;4973970;28;20120;-77
2022/04/04 10:41:00;;;;;;;6.93;2.22;;;6.80;99.90;;;;;;4956893;28;20051;-78
2022/04/04 10:43:31;;;;;;;7.43;2.53;;;6.90;99.90;;;;;;4978821;28;20054;-78
2022/04/04 10:46:00;;;;;;;6.05;2.67;;;6.90;99.90;;;;;;4978090;28;20053;-78
2022/04/04 10:48:31;;;;;;;8.02;2.20;;;6.90;99.90;;;;;;4977348;28;20046;-78
2022/04/04 10:51:17;;;;;;;8.40;2.72;;;6.90;99.90;;;;;;4978331;28;20511;-78
2022/04/04 10:53:57;;;;;;;5.80;2.65;;;6.90;99.90;;;;;;4972830;28;20034;-78
2022/04/04 10:56:24;;;;;;;6.95;2.25;;;6.90;99.90;;;;;;4977825;28;20034;-77
2022/04/04 10:58:52;;;;;;;6.90;2.33;;;6.90;99.90;;;;;;4978670;28;20038;-82
2022/04/04 11:01:22;;;;;;;7.53;2.47;;;6.90;99.90;;;;;;4978641;28;20048;-82
2022/04/04 11:03:51;;;;;;;7.13;2.40;;;7.00;99.90;;;;;;4978976;28;20039;-82
2022/04/04 11:09:14;;;;;;;5.07;1.60;;;7.00;99.90;;;;;;4978071;28;20178;-83
2022/04/04 11:11:47;;;;;;;4.68;1.60;;;7.10;99.90;;;;;;4978278;28;20469;-84
2022/04/04 11:14:39;;;;;;;6.25;1.92;;;7.10;99.90;;;;;;4976339;28;20065;-83
2022/04/04 11:17:17;;;;;;;3.83;1.75;;;7.40;99.90;;;;;;4976187;28;20053;-78
2022/04/04 11:19:53;;;;;;;5.30;1.88;;;7.50;99.90;;;;;;4960080;28;20038;-78
2022/04/04 11:22:24;;;;;;;3.08;1.75;;;7.30;99.90;;;;;;4976456;28;20038;-78
2022/04/04 11:25:03;;;;;;;4.40;1.70;;;7.30;99.90;;;;;;4977316;28;20431;-78
2022/04/04 11:27:33;;;;;;;4.38;1.80;;;7.30;99.90;;;;;;4975413;28;20038;-78
2022/04/04 11:30:00;;;;;;;3.30;1.17;;;7.40;99.90;;;;;;4976380;28;20077;-78
2022/04/04 11:32:33;;;;;;;4.53;1.77;;;7.50;99.90;;;;;;4975850;28;20125;-78
2022/04/04 11:35:01;;;;;;;3.90;1.70;;;7.40;99.90;;;;;;4977774;28;20391;-83
2022/04/04 11:37:29;;;;;;;4.15;1.77;;;7.40;99.90;;;;;;4989880;28;20038;-83
2022/04/04 11:40:03;;;;;;;3.53;1.50;;;7.40;99.90;;;;;;4977235;28;20842;-82
2022/04/04 11:42:30;;;;;;;6.00;2.03;;;7.40;99.90;;;;;;4979631;28;20507;-82
2022/04/04 11:44:58;;;;;;;2.42;1.13;;;7.40;99.90;;;;;;4977484;28;20085;-83
2022/04/04 11:47:24;;;;;;;6.53;2.00;;;7.60;99.90;;;;;;4977563;28;20053;-82
2022/04/04 11:49:53;;;;;;;3.00;1.70;;;7.50;99.90;;;;;;4972779;28;20416;-77
2022/04/04 11:52:19;;;;;;;2.28;1.70;;;7.50;99.90;;;;;;4990651;28;20045;-78
2022/04/04 11:54:50;;;;;;;3.15;1.65;;;7.50;99.90;;;;;;4993264;28;20092;-78
2022/04/04 11:57:17;;;;;;;4.50;2.20;;;7.50;99.90;;;;;;4972844;28;20076;-77
2022/04/04 11:59:46;;;;;;;4.53;2.10;;;7.50;99.90;;;;;;4989111;28;20504;-78
2022/04/04 12:02:13;;;;;;;4.63;2.17;;;7.80;99.90;;;;;;4991062;28;20114;-77
2022/04/04 12:04:41;;;;;;;3.70;2.33;;;7.70;99.90;;;;;;4986766;28;20042;-78
2022/04/04 12:07:09;;;;;;;4.57;2.35;;;7.60;99.90;;;;;;4992509;28;20066;-77
2022/04/04 12:09:36;;;;;;;4.60;2.40;;;7.70;99.90;;;;;;4990381;28;20794;-78
2022/04/04 12:12:06;;;;;;;4.57;2.80;;;7.70;99.90;;;;;;4974981;28;20061;-77
2022/04/04 12:14:41;;;;;;;6.50;3.40;;;7.70;99.90;;;;;;4989625;28;20108;-77
2022/04/04 12:17:08;;;;;;;5.10;3.15;;;7.80;99.90;;;;;;4989556;28;20554;-78
2022/04/04 12:19:42;;;;;;;7.47;3.63;;;7.80;99.90;;;;;;4991920;28;20034;-78
2022/04/04 12:24:55;;;;;;;8.82;3.83;;;8.00;99.90;;;;;;4994892;28;20046;-82
2022/04/04 12:24:57;;;;;;;6.75;4.13;;;7.90;99.90;;;;;;4991846;28;20045;-82
2022/04/04 12:27:24;;;;;;;5.55;3.42;;;7.90;99.90;;;;;;4993687;28;20065;-82
2022/04/04 12:29:59;;;;;;;8.98;4.20;;;7.90;99.90;;;;;;4975496;28;20533;-82
2022/04/04 12:32:25;;;;;;;7.03;3.42;;;8.00;99.90;;;;;;5001707;28;20548;-83
2022/04/04 12:35:00;;;;;;;8.02;3.92;;;8.00;99.90;;;;;;4993080;28;20077;-83
2022/04/04 12:37:33;;;;;;;7.13;3.65;;;8.00;99.90;;;;;;4990532;28;20177;-82
2022/04/04 12:40:21;;;;;;;7.07;3.53;;;8.10;99.90;;;;;;4975149;28;20126;-83
2022/04/04 12:42:52;;;;;;;7.38;4.10;;;8.10;99.90;;;;;;4991386;28;20062;-82
2022/04/04 12:45:19;;;;;;;8.35;4.10;;;8.20;99.90;;;;;;4989397;28;20417;-83
2022/04/04 12:47:53;;;;;;;8.63;4.68;;;8.20;99.90;;;;;;4973223;28;20516;-83
2022/04/04 12:50:21;;;;;;;9.00;3.90;;;8.30;99.90;;;;;;4976645;28;20324;-82
2022/04/04 12:53:00;;;;;;;10.73;4.95;;;8.30;99.90;;;;;;4942413;28;21587;-82
2022/04/04 12:55:27;;;;;;;8.50;4.28;;;8.30;99.90;;;;;;4975618;28;20053;-83
2022/04/04 12:57:54;;;;;;;9.07;4.75;;;8.40;99.90;;;;;;4973489;28;20056;-82
2022/04/04 13:00:28;;;;;;;10.13;4.93;;;9.10;99.90;;;;;;4972247;28;20049;-83